Time;durP1;ratioP1;P1;durP2;ratioP2;P2;SDS_P1;SDS_P2;PMS_P1;PMS_P2;Temp;Humidity;BMP_temperature;BMP_pressure;BME280_temperature;BME280_humidity;BME280_pressure;Samples;Min_cycle;Max_cycle;Signal;HPM_P1;HPM_P2
2022/08/04 00:00:09;;;;;;;11.73;5.75;;;;;;;19.12;100.00;101074.16;4965825;28;20073;-73
2022/08/04 00:02:59;;;;;;;11.00;5.47;;;;;;;19.08;100.00;101070.19;4956850;28;20070;-73
2022/08/04 00:05:31;;;;;;;13.10;5.13;;;;;;;19.05;100.00;101073.34;4964215;28;20039;-76
2022/08/04 00:08:15;;;;;;;9.07;5.80;;;;;;;19.05;100.00;101081.44;4964624;28;20093;-75
2022/08/04 00:10:47;;;;;;;19.35;10.77;;;;;;;19.02;100.00;101073.75;4970917;28;20571;-73
2022/08/04 00:13:14;;;;;;;14.05;8.07;;;;;;;19.03;100.00;101072.72;4964489;28;20035;-74
2022/08/04 00:15:41;;;;;;;15.50;7.28;;;;;;;19.02;100.00;101071.06;4961251;28;20042;-74
2022/08/04 00:18:08;;;;;;;14.80;7.40;;;;;;;19.00;100.00;101062.31;4965427;28;20169;-75
2022/08/04 00:20:41;;;;;;;12.05;7.25;;;;;;;18.98;100.00;101068.75;4963912;28;20019;-74
2022/08/04 00:23:07;;;;;;;13.68;6.50;;;;;;;18.98;100.00;101076.88;4965610;28;20129;-76
2022/08/04 00:25:32;;;;;;;10.27;6.38;;;;;;;18.98;100.00;101071.47;4965451;28;20098;-74
2022/08/04 00:28:00;;;;;;;7.40;5.78;;;;;;;18.96;100.00;101078.97;4964487;28;20035;-75
2022/08/04 00:30:25;;;;;;;9.85;5.90;;;;;;;18.93;100.00;101071.25;4957581;28;20456;-74
2022/08/04 00:32:51;;;;;;;10.43;6.25;;;;;;;18.91;100.00;101075.22;4965610;28;20053;-75
2022/08/04 00:35:17;;;;;;;10.82;5.97;;;;;;;18.88;100.00;101071.06;4965319;28;20027;-75
2022/08/04 00:37:46;;;;;;;6.80;5.75;;;;;;;18.87;100.00;101065.84;4964076;28;20027;-74
2022/08/04 00:40:30;;;;;;;11.95;5.80;;;;;;;18.87;100.00;101072.13;4957768;28;20074;-74
2022/08/04 00:43:20;;;;;;;13.57;6.60;;;;;;;18.85;100.00;101065.25;4964147;28;20463;-74
2022/08/04 00:46:24;;;;;;;11.75;6.15;;;;;;;18.82;100.00;101068.34;4959622;28;20100;-74
2022/08/04 00:49:01;;;;;;;9.48;5.57;;;;;;;18.80;100.00;101067.72;5040793;28;20040;-74
2022/08/04 00:51:39;;;;;;;10.75;5.18;;;;;;;18.77;100.00;101058.16;4969399;28;20468;-74
2022/08/04 00:54:30;;;;;;;8.88;5.35;;;;;;;18.76;100.00;101056.47;4964060;28;20113;-74
2022/08/04 00:57:17;;;;;;;12.25;6.13;;;;;;;18.74;100.00;101059.38;4963374;28;20511;-74
2022/08/04 00:59:54;;;;;;;9.88;5.75;;;;;;;18.72;100.00;101053.34;4960296;28;20117;-73
2022/08/04 01:02:34;;;;;;;13.93;5.60;;;;;;;18.69;100.00;101044.84;4964017;28;20034;-73
2022/08/04 01:05:19;;;;;;;10.18;5.88;;;;;;;18.66;100.00;101046.09;4957816;28;20035;-75
2022/08/04 01:07:44;;;;;;;11.13;6.17;;;;;;;18.66;100.00;101045.22;4975960;28;20038;-74
2022/08/04 01:10:23;;;;;;;9.93;6.30;;;;;;;18.62;100.00;101044.00;4964508;28;20478;-76
2022/08/04 01:13:05;;;;;;;11.43;5.90;;;;;;;18.56;100.00;101041.06;4963853;28;20084;-76
2022/08/04 01:15:45;;;;;;;14.07;6.50;;;;;;;18.54;100.00;101032.38;4959927;28;20042;-73
2022/08/04 01:18:24;;;;;;;7.10;6.05;;;;;;;18.52;100.00;101036.31;4963500;28;20050;-74
2022/08/04 01:21:22;;;;;;;8.57;5.78;;;;;;;18.49;100.00;101034.84;4963269;28;20081;-74
2022/08/04 01:23:56;;;;;;;10.73;5.60;;;;;;;18.48;100.00;101033.19;4958885;28;20035;-74
2022/08/04 01:26:30;;;;;;;10.90;5.90;;;;;;;18.46;100.00;101035.25;4963613;28;20572;-74
2022/08/04 01:29:13;;;;;;;13.35;8.05;;;;;;;18.46;100.00;101037.97;4963154;28;20039;-74
2022/08/04 01:31:47;;;;;;;19.85;7.70;;;;;;;18.41;100.00;101043.16;4959661;28;20050;-75
2022/08/04 01:34:15;;;;;;;16.77;6.80;;;;;;;18.38;100.00;101035.47;4963095;28;20043;-74
2022/08/04 01:36:45;;;;;;;8.05;5.63;;;;;;;18.37;100.00;101036.50;4983781;28;20039;-74
2022/08/04 01:41:58;;;;;;;12.82;7.10;;;;;;;18.32;100.00;101034.41;4962807;28;20038;-74
2022/08/04 01:44:27;;;;;;;9.40;5.80;;;;;;;18.30;100.00;101030.25;4963026;28;20383;-74
2022/08/04 01:46:53;;;;;;;11.15;5.70;;;;;;;18.30;100.00;101032.97;4954454;28;20035;-73
2022/08/04 01:49:20;;;;;;;13.48;6.85;;;;;;;18.28;100.00;101026.94;4956735;28;20034;-73
2022/08/04 01:51:49;;;;;;;14.00;6.95;;;;;;;18.25;100.00;101011.97;4964132;28;20045;-74
2022/08/04 01:54:17;;;;;;;13.52;5.97;;;;;;;18.24;100.00;101015.72;4962100;28;20027;-75
2022/08/04 01:56:43;;;;;;;9.07;6.30;;;;;;;18.25;100.00;101016.53;4963952;28;20217;-75
2022/08/04 01:59:11;;;;;;;13.95;7.72;;;;;;;18.25;100.00;101019.25;4963775;28;20423;-74
2022/08/04 02:01:36;;;;;;;11.73;5.85;;;;;;;18.23;100.00;101014.03;4963981;28;20031;-74
2022/08/04 02:04:01;;;;;;;10.27;6.70;;;;;;;18.25;100.00;101011.13;4964028;28;20054;-74
2022/08/04 02:06:39;;;;;;;11.10;8.03;;;;;;;18.25;100.00;101016.53;4961662;28;20047;-74
2022/08/04 02:09:32;;;;;;;14.48;7.40;;;;;;;18.23;100.00;101018.63;4962472;28;20710;-75
2022/08/04 02:12:07;;;;;;;14.43;6.78;;;;;;;18.20;100.00;101013.63;4963642;28;20488;-76
2022/08/04 02:15:03;;;;;;;19.20;8.75;;;;;;;18.17;100.00;101004.06;4974603;28;20130;-74
2022/08/04 02:17:37;;;;;;;10.27;5.97;;;;;;;18.12;100.00;101004.69;4956506;28;20031;-74
2022/08/04 02:20:07;;;;;;;11.60;6.32;;;;;;;18.13;100.00;101003.63;4963708;28;20031;-74
2022/08/04 02:22:37;;;;;;;13.93;7.30;;;;;;;18.14;100.00;100999.91;4963640;28;20081;-74
2022/08/04 02:25:08;;;;;;;11.73;7.43;;;;;;;18.15;100.00;101006.16;4963627;28;20114;-75
2022/08/04 02:27:52;;;;;;;7.25;6.40;;;;;;;18.11;100.00;101003.00;4973212;28;20357;-75
2022/08/04 02:30:18;;;;;;;13.00;7.57;;;;;;;18.08;100.00;100997.19;4955919;28;20034;-74
2022/08/04 02:32:45;;;;;;;16.33;7.57;;;;;;;18.06;100.00;101008.19;4957275;28;20494;-74
2022/08/04 02:35:18;;;;;;;14.45;7.28;;;;;;;18.00;100.00;100992.81;4963439;28;20045;-74
2022/08/04 02:37:47;;;;;;;8.77;6.72;;;;;;;17.97;100.00;100992.41;4962165;28;20088;-74
2022/08/04 02:40:19;;;;;;;9.00;6.50;;;;;;;17.90;100.00;100998.59;4960958;28;20026;-75
2022/08/04 02:42:45;;;;;;;12.30;6.57;;;;;;;17.88;100.00;100986.34;4960139;28;20046;-74
2022/08/04 02:45:10;;;;;;;;;;;;;;;17.94;100.00;100988.25;4957720;28;20035;-74
2022/08/04 02:47:36;;;;;;;;;;;;;;;17.89;100.00;100980.75;4975398;28;20280;-75
2022/08/04 02:50:02;;;;;;;17.75;8.00;;;;;;;17.96;100.00;100983.47;4959252;28;20434;-75
2022/08/04 02:52:28;;;;;;;18.27;8.55;;;;;;;18.05;100.00;100974.13;4962049;28;20038;-74
2022/08/04 02:54:55;;;;;;;;;;;;;;;18.05;100.00;100978.69;4963868;28;20062;-75
2022/08/04 02:57:25;;;;;;;16.70;8.48;;;;;;;17.98;100.00;100962.50;4963418;28;19948;-74
2022/08/04 03:00:11;;;;;;;12.85;7.88;;;;;;;17.95;100.00;100967.47;4961268;28;20046;-76
2022/08/04 03:02:54;;;;;;;15.65;8.68;;;;;;;18.01;100.00;100972.88;4961984;28;20031;-76
2022/08/04 03:05:58;;;;;;;13.43;7.68;;;;;;;18.17;100.00;100968.09;4960648;28;20053;-76
2022/08/04 03:08:43;;;;;;;9.82;6.50;;;;;;;18.50;100.00;100963.53;4962582;28;20045;-76
2022/08/04 03:11:23;;;;;;;16.23;6.30;;;;;;;18.85;100.00;100967.88;4962658;28;20050;-75
2022/08/04 03:14:18;;;;;;;16.45;5.82;;;;;;;19.19;100.00;100947.78;4988765;28;20124;-75
2022/08/04 03:16:46;;;;;;;13.85;5.65;;;;;;;19.39;100.00;100942.28;4973948;28;20042;-75
2022/08/04 03:19:23;;;;;;;12.93;5.22;;;;;;;19.45;100.00;100933.28;4976688;28;20168;-74
2022/08/04 03:22:26;;;;;;;11.13;5.57;;;;;;;19.51;100.00;100928.88;4976018;28;20503;-74
2022/08/04 03:25:06;;;;;;;12.80;4.97;;;;;;;19.61;100.00;100915.69;4959006;28;20035;-74
2022/08/04 03:28:04;;;;;;;13.45;4.90;;;;;;;19.51;100.00;100907.22;4957644;28;20105;-75
2022/08/04 03:30:39;;;;;;;14.90;5.13;;;;;;;19.40;100.00;100925.81;4969979;28;20038;-74
2022/08/04 03:33:34;;;;;;;10.07;4.88;;;;;;;19.30;100.00;100917.31;4963019;28;20042;-75
2022/08/04 03:36:26;;;;;;;8.73;4.78;;;;;;;19.18;100.00;100919.88;4975879;28;21045;-75
2022/08/04 03:39:16;;;;;;;12.82;4.85;;;;;;;19.10;100.00;100930.13;4977961;28;20477;-76
2022/08/04 03:42:12;;;;;;;7.10;4.35;;;;;;;19.06;100.00;100934.28;4998172;28;20113;-75
2022/08/04 03:45:15;;;;;;;9.50;4.43;;;;;;;19.03;100.00;100940.13;4954215;28;20092;-76
2022/08/04 03:48:07;;;;;;;9.50;5.35;;;;;;;18.97;100.00;100947.25;4961988;28;20035;-75
2022/08/04 03:54:19;;;;;;;11.18;4.55;;;;;;;18.90;100.00;100951.84;4960520;28;20043;-75
2022/08/04 03:57:12;;;;;;;12.02;4.43;;;;;;;18.98;100.00;100952.41;4962078;28;20426;-75
2022/08/04 04:00:15;;;;;;;12.20;5.55;;;;;;;18.98;100.00;100938.88;4959342;28;20081;-76
2022/08/04 04:03:01;;;;;;;11.85;4.10;;;;;;;18.98;100.00;100936.19;4981434;28;20401;-76
2022/08/04 04:05:42;;;;;;;9.20;4.05;;;;;;;18.94;100.00;100924.16;4965572;28;20027;-76
2022/08/04 04:08:28;;;;;;;9.35;3.70;;;;;;;18.96;100.00;100932.03;4965434;28;20109;-76
2022/08/04 04:11:15;;;;;;;7.80;3.42;;;;;;;18.96;100.00;100930.19;4961998;28;20126;-76
2022/08/04 04:14:15;;;;;;;8.00;4.75;;;;;;;18.95;100.00;100925.78;4976569;28;20039;-76
2022/08/04 04:17:21;;;;;;;8.52;3.55;;;;;;;19.03;100.00;100934.72;4960005;28;20122;-75
2022/08/04 04:20:16;;;;;;;12.18;4.15;;;;;;;19.05;100.00;100936.16;4976896;28;20145;-75
2022/08/04 04:22:59;;;;;;;9.18;3.40;;;;;;;19.13;100.00;100937.81;4933021;29;20050;-75
2022/08/04 04:25:54;;;;;;;7.82;3.53;;;;;;;19.16;100.00;100926.56;4963674;28;20133;-76
2022/08/04 04:29:01;;;;;;;9.88;3.88;;;;;;;19.18;100.00;100935.28;4962835;28;20027;-76
2022/08/04 04:31:41;;;;;;;11.82;3.70;;;;;;;19.25;100.00;100925.28;4963523;28;20499;-75
2022/08/04 04:34:31;;;;;;;8.48;3.67;;;;;;;19.29;100.00;100933.78;4963811;28;20500;-76
2022/08/04 04:37:35;;;;;;;10.82;3.22;;;;;;;19.34;100.00;100934.81;4964082;28;20177;-76
2022/08/04 04:40:27;;;;;;;13.20;3.85;;;;;;;19.39;100.00;100932.28;4991372;28;20051;-75
2022/08/04 04:43:04;;;;;;;10.68;3.97;;;;;;;19.44;100.00;100941.63;4962222;28;20390;-76
2022/08/04 04:45:39;;;;;;;7.20;3.45;;;;;;;19.53;100.00;100937.63;4954288;28;20028;-76
2022/08/04 04:48:29;;;;;;;7.97;3.53;;;;;;;19.61;100.00;100934.66;4952736;28;20084;-76
2022/08/04 04:51:19;;;;;;;10.60;4.80;;;;;;;19.71;100.00;100934.19;4961037;28;20597;-75
2022/08/04 04:54:18;;;;;;;15.63;4.32;;;;;;;19.82;100.00;100928.09;4961487;28;20054;-76
2022/08/04 04:57:06;;;;;;;15.90;5.20;;;;;;;19.92;100.00;100930.31;4959575;28;20027;-76
2022/08/04 04:59:35;;;;;;;14.45;4.03;;;;;;;20.02;100.00;100920.66;4986305;28;20287;-76
2022/08/04 05:02:27;;;;;;;11.68;4.57;;;;;;;20.25;100.00;100919.19;4963670;28;20117;-76
2022/08/04 05:04:59;;;;;;;6.82;4.15;;;;;;;20.41;100.00;100896.91;4965159;28;20074;-76
2022/08/04 05:07:58;;;;;;;14.85;4.55;;;;;;;20.62;100.00;100884.84;4965121;28;20559;-76
2022/08/04 05:10:47;;;;;;;9.13;3.78;;;;;;;20.78;100.00;100879.88;4962324;28;20035;-76
2022/08/04 05:13:22;;;;;;;13.75;3.47;;;;;;;20.99;100.00;100868.56;4963332;28;20042;-76
2022/08/04 05:15:52;;;;;;;6.50;3.30;;;;;;;21.28;100.00;100847.06;4963629;28;20043;-76
2022/08/04 05:18:25;;;;;;;15.00;4.25;;;;;;;21.46;100.00;100828.03;4963210;28;20035;-76
2022/08/04 05:20:56;;;;;;;12.88;4.28;;;;;;;21.69;100.00;100807.41;4962829;28;20051;-76
2022/08/04 05:23:26;;;;;;;9.50;4.63;;;;;;;22.13;100.00;100795.13;4964705;28;20042;-76
2022/08/04 05:25:58;;;;;;;8.88;3.42;;;;;;;22.97;100.00;100775.63;4963344;28;20064;-76
2022/08/04 05:28:33;;;;;;;12.35;3.55;;;;;;;23.55;100.00;100691.06;4960868;28;20027;-75
2022/08/04 05:31:09;;;;;;;11.23;3.58;;;;;;;24.76;100.00;100673.78;4953303;28;20035;-76
2022/08/04 05:34:12;;;;;;;10.30;4.28;;;;;;;24.32;100.00;100566.63;4954321;28;20031;-76
2022/08/04 05:36:45;;;;;;;11.20;3.40;;;;;;;24.12;100.00;100597.25;4897012;29;20118;-76
2022/08/04 05:39:24;;;;;;;6.97;3.88;;;;;;;23.62;100.00;100659.00;4944208;28;20055;-76
2022/08/04 05:41:51;;;;;;;6.32;3.72;;;;;;;24.14;100.00;100690.53;4954759;28;20046;-76
2022/08/04 05:44:19;;;;;;;9.07;3.60;;;;;;;24.64;100.00;100686.75;4954061;28;20029;-77
2022/08/04 05:46:47;;;;;;;7.50;3.28;;;;;;;25.32;100.00;100713.63;4952118;28;20100;-77
2022/08/04 05:49:14;;;;;;;11.43;3.40;;;;;;;25.12;100.00;100550.34;4960939;28;20019;-77
2022/08/04 05:51:40;;;;;;;12.93;4.20;;;;;;;25.03;100.00;100662.00;4952025;28;20477;-76
2022/08/04 05:54:07;;;;;;;10.77;3.17;;;;;;;25.89;100.00;100633.59;4952649;28;20740;-77
2022/08/04 05:56:34;;;;;;;8.07;3.70;;;;;;;25.18;100.00;100604.78;4957656;28;20043;-77
2022/08/04 05:59:03;;;;;;;9.95;3.22;;;;;;;25.80;100.00;100655.16;4964931;28;20030;-77
2022/08/04 06:01:29;;;;;;;8.73;3.22;;;;;;;26.01;100.00;100634.22;4963860;28;20080;-77
2022/08/04 06:03:57;;;;;;;9.50;3.65;;;;;;;26.05;100.00;100638.03;4964672;28;20027;-77
2022/08/04 06:06:24;;;;;;;11.20;2.97;;;;;;;26.21;100.00;100561.50;4962216;28;20481;-77
2022/08/04 06:08:50;;;;;;;12.25;2.60;;;;;;;27.03;100.00;100542.34;4964560;28;20459;-75
2022/08/04 06:11:18;;;;;;;8.32;3.05;;;;;;;26.74;100.00;100479.94;4956879;28;20046;-77
2022/08/04 06:14:00;;;;;;;8.10;2.67;;;;;;;27.03;100.00;100554.09;4964793;28;20022;-77
2022/08/04 06:16:31;;;;;;;11.63;3.45;;;;;;;26.86;100.00;100464.03;4962566;28;20038;-77
2022/08/04 06:19:06;;;;;;;7.65;3.00;;;;;;;26.49;100.00;100525.38;4963876;28;20066;-75
2022/08/04 06:21:33;;;;;;;6.90;2.50;;;;;;;27.31;100.00;100670.56;4958213;28;20042;-77
2022/08/04 06:24:00;;;;;;;8.43;3.10;;;;;;;27.77;100.00;100544.28;4962933;28;20043;-77
2022/08/04 06:26:28;;;;;;;7.82;2.75;;;;;;;28.03;96.10;100459.13;4975417;28;20045;-77
2022/08/04 06:28:56;;;;;;;10.32;2.83;;;;;;;26.84;100.00;100488.13;4963627;28;20514;-77
2022/08/04 06:34:07;;;;;;;;;;;;;;;27.79;97.95;100506.44;4963219;28;20034;-77
2022/08/04 06:36:36;;;;;;;6.63;2.50;;;;;;;26.85;100.00;100476.06;4964030;28;20199;-77
2022/08/04 06:39:04;;;;;;;7.25;2.72;;;;;;;26.88;100.00;100515.81;4963487;28;20445;-77
2022/08/04 06:41:31;;;;;;;5.18;2.20;;;;;;;27.46;100.00;100587.44;4970262;28;20081;-77
2022/08/04 06:44:06;;;;;;;13.90;2.85;;;;;;;27.83;99.89;100566.19;4958601;28;20045;-77
2022/08/04 06:46:35;;;;;;;5.07;2.45;;;;;;;28.56;93.18;100554.50;4954331;28;20031;-77
2022/08/04 06:49:02;;;;;;;8.00;2.72;;;;;;;28.48;93.45;100539.47;4961677;28;20027;-77
2022/08/04 06:51:30;;;;;;;12.40;2.83;;;;;;;28.97;91.05;100554.94;4964414;28;20038;-77
2022/08/04 06:53:55;;;;;;;4.68;2.38;;;;;;;28.57;88.62;100451.81;4964128;28;20414;-77
2022/08/04 06:56:23;;;;;;;6.28;2.67;;;;;;;28.95;85.48;100463.75;4959684;28;20049;-78
2022/08/04 06:58:52;;;;;;;6.63;2.53;;;;;;;27.25;91.57;100331.81;4961965;28;20026;-77
2022/08/04 07:01:20;;;;;;;10.35;2.38;;;;;;;28.12;96.58;100578.16;4964354;28;20050;-77
2022/08/04 07:03:46;;;;;;;10.88;2.25;;;;;;;28.37;89.07;100455.53;4964905;28;20485;-77
2022/08/04 07:06:13;;;;;;;9.57;2.95;;;;;;;28.39;90.44;100506.28;4963056;28;20053;-77
2022/08/04 07:08:38;;;;;;;2.75;1.90;;;;;;;27.63;91.04;100391.59;4963336;28;20022;-76
2022/08/04 07:11:05;;;;;;;6.05;2.28;;;;;;;27.73;91.93;100449.16;4962837;28;20314;-77
2022/08/04 07:13:30;;;;;;;;;;;;;;;28.05;87.95;100426.72;4964836;28;20500;-76
2022/08/04 07:15:58;;;;;;;5.25;2.35;;;;;;;27.70;84.90;100324.38;4964149;28;19964;-77
2022/08/04 07:18:23;;;;;;;5.63;2.10;;;;;;;28.12;84.49;100408.00;4964178;28;20076;-77
2022/08/04 07:20:50;;;;;;;9.77;2.88;;;;;;;28.11;81.29;100326.78;4965732;28;20046;-77
2022/08/04 07:23:20;;;;;;;;;;;;;;;28.77;80.58;100424.09;4968239;28;20041;-77
2022/08/04 07:25:51;;;;;;;9.10;3.30;;;;;;;28.77;75.31;100281.28;4966531;28;19918;-77
2022/08/04 07:28:17;;;;;;;6.50;2.38;;;;;;;28.44;76.09;100266.56;4964751;28;20035;-78
2022/08/04 07:30:43;;;;;;;10.35;2.22;;;;;;;29.08;75.50;100362.50;4967489;28;20388;-78
2022/08/04 07:33:10;;;;;;;8.82;2.60;;;;;;;28.94;70.53;100192.03;4966755;28;20047;-77
2022/08/04 07:35:37;;;;;;;6.70;2.60;;;;;;;29.65;68.71;100283.56;4966806;28;20053;-78
2022/08/04 07:38:02;;;;;;;8.60;2.63;;;;;;;29.67;67.09;100199.63;4968024;28;20341;-78
2022/08/04 07:40:29;;;;;;;8.70;2.50;;;;;;;29.98;65.36;100196.28;4962284;28;20018;-78
2022/08/04 07:42:56;;;;;;;7.90;2.65;;;;;;;29.22;66.96;100135.25;4961752;28;20145;-77
2022/08/04 07:45:23;;;;;;;5.93;2.10;;;;;;;29.60;67.83;100269.88;4977251;28;20026;-78
2022/08/04 07:47:48;;;;;;;11.18;2.90;;;;;;;30.32;63.62;100214.38;4968260;28;20051;-78
2022/08/04 07:50:15;;;;;;;5.35;2.38;;;;;;;30.71;61.14;100161.41;4964677;28;20058;-78
2022/08/04 07:52:41;;;;;;;8.73;2.20;;;;;;;29.93;63.42;100135.06;4968769;28;20253;-78
2022/08/04 07:55:06;;;;;;;;;;;;;;;29.86;63.34;100111.50;4967288;28;20089;-78
2022/08/04 07:57:32;;;;;;;11.27;2.60;;;;;;;29.94;61.46;100067.88;4966890;28;20001;-78
2022/08/04 07:59:57;;;;;;;;;;;;;;;29.83;62.14;100111.31;4968127;28;20027;-78
2022/08/04 08:02:23;;;;;;;6.90;2.90;;;;;;;30.47;57.46;100001.16;4978500;28;19992;-78
2022/08/04 08:04:49;;;;;;;7.18;2.08;;;;;;;29.83;59.24;99976.53;4967896;28;20069;-78
2022/08/04 08:07:14;;;;;;;;;;;;;;;30.17;59.99;100096.28;4967110;28;20110;-77
2022/08/04 08:09:40;;;;;;;10.88;3.85;;;;;;;30.42;56.97;99985.59;4966100;28;19918;-77
2022/08/04 08:12:06;;;;;;;;;;;;;;;30.63;56.13;99965.78;4967145;28;20121;-78
2022/08/04 08:14:33;;;;;;;7.30;2.55;;;;;;;31.03;56.16;100081.59;4966465;28;19964;-78
2022/08/04 08:17:03;;;;;;;7.63;1.83;;;;;;;31.16;53.89;99969.59;4966046;28;20495;-78
2022/08/04 08:19:33;;;;;;;10.00;2.30;;;;;;;31.49;52.70;99923.16;4966115;28;20038;-78
2022/08/04 08:21:59;;;;;;;7.07;2.47;;;;;;;32.54;54.86;100285.84;4959721;28;20096;-76
2022/08/04 08:24:25;;;;;;;9.43;2.55;;;;;;;33.05;53.78;100240.06;4962973;28;20026;-75
2022/08/04 08:26:50;;;;;;;;;;;;;;;32.79;52.30;100061.19;4964624;28;20503;-76
2022/08/04 08:29:16;;;;;;;11.93;2.88;;;;;;;33.52;50.13;100060.31;4963889;28;20229;-77
2022/08/04 08:31:42;;;;;;;20.98;3.53;;;;;;;33.36;50.27;100028.81;4963873;28;20058;-77
2022/08/04 08:34:11;;;;;;;7.65;2.40;;;;;;;33.47;47.62;99832.84;4964562;28;20098;-76
2022/08/04 08:36:45;;;;;;;10.77;3.05;;;;;;;33.46;51.73;100150.19;4958452;28;20089;-76
2022/08/04 08:39:17;;;;;;;7.50;2.90;;;;;;;33.14;50.61;99931.16;4965270;28;20491;-77
2022/08/04 08:42:01;;;;;;;9.30;2.50;;;;;;;33.72;51.19;100125.22;4964159;28;20031;-76
2022/08/04 08:44:55;;;;;;;9.17;2.97;;;;;;;33.69;49.93;99981.94;4963765;28;20108;-76
2022/08/04 08:47:46;;;;;;;6.63;1.70;;;;;;;34.38;47.07;99888.34;4946657;28;20061;-77
2022/08/04 08:50:28;;;;;;;5.50;2.55;;;;;;;34.62;47.43;99990.13;4963861;28;20049;-76
2022/08/04 08:53:00;;;;;;;12.63;2.05;;;;;;;34.57;46.63;99885.81;4964369;28;20049;-77
2022/08/04 08:55:25;;;;;;;7.18;2.10;;;;;;;34.90;45.49;99837.81;4957932;28;20129;-76
2022/08/04 08:58:22;;;;;;;8.13;2.42;;;;;;;34.14;45.02;99617.69;4963983;28;20098;-77
2022/08/04 09:01:02;;;;;;;4.90;1.67;;;;;;;34.29;42.89;99520.03;4961139;28;20030;-77
2022/08/04 09:03:50;;;;;;;6.60;1.90;;;;;;;34.03;42.06;99404.94;4957773;28;20034;-75
2022/08/04 09:06:37;;;;;;;5.82;1.63;;;;;;;34.20;40.13;99303.34;4963459;28;20066;-77
2022/08/04 09:09:21;;;;;;;6.43;1.80;;;;;;;33.11;40.87;99174.28;4963603;28;20035;-76
2022/08/04 09:12:20;;;;;;;5.33;2.10;;;;;;;32.80;41.31;99183.19;4961883;28;20042;-76
2022/08/04 09:14:54;;;;;;;5.90;2.03;;;;;;;33.20;41.93;99368.50;4960122;28;20320;-75
2022/08/04 09:17:28;;;;;;;7.47;1.80;;;;;;;33.15;41.45;99330.00;4964104;28;20559;-76
2022/08/04 09:20:11;;;;;;;6.03;1.80;;;;;;;32.81;40.94;99187.59;4964443;28;20503;-76
2022/08/04 09:22:42;;;;;;;5.47;1.70;;;;;;;32.97;41.38;99318.38;4974855;28;20168;-75
2022/08/04 09:25:27;;;;;;;8.82;1.52;;;;;;;33.45;41.31;99412.69;4977777;28;20043;-76
2022/08/04 09:28:01;;;;;;;6.80;2.10;;;;;;;33.18;40.34;99238.06;4963391;28;20034;-76
2022/08/04 09:30:36;;;;;;;6.45;1.75;;;;;;;32.79;40.82;99187.13;4965076;28;20031;-76
2022/08/04 09:33:26;;;;;;;3.65;1.90;;;;;;;31.84;42.81;99212.03;4963426;28;20435;-76
2022/08/04 09:36:00;;;;;;;4.18;1.60;;;;;;;31.42;42.68;99125.88;4962250;28;20505;-76
2022/08/04 09:38:37;;;;;;;5.05;1.60;;;;;;;31.68;43.37;99293.84;4964551;28;20031;-75
2022/08/04 09:41:24;;;;;;;8.00;2.22;;;;;;;31.51;42.96;99166.00;4963138;28;20066;-75
2022/08/04 09:44:06;;;;;;;10.02;1.85;;;;;;;31.66;43.74;99321.78;4965567;28;20038;-78
2022/08/04 09:46:45;;;;;;;5.93;2.80;;;;;;;32.17;42.70;99383.19;4963261;28;20118;-76
2022/08/04 09:49:27;;;;;;;9.05;1.77;;;;;;;31.91;42.58;99258.41;4957990;28;20049;-75
2022/08/04 09:51:52;;;;;;;3.10;1.83;;;;;;;31.65;42.70;99250.41;4960673;28;20038;-77
2022/08/04 09:54:27;;;;;;;;;;;;;;;32.52;43.46;99525.66;4974857;28;20037;-75
2022/08/04 09:57:03;;;;;;;3.17;1.40;;;;;;;33.35;39.92;99377.22;4963705;28;19921;-77
2022/08/04 09:59:41;;;;;;;4.93;1.20;;;;;;;33.92;38.70;99370.59;4955552;28;20064;-75
2022/08/04 10:02:12;;;;;;;3.80;1.95;;;;;;;34.65;37.39;99376.94;4954977;28;20043;-75
2022/08/04 10:04:41;;;;;;;4.25;2.00;;;;;;;34.16;38.95;99374.44;4952040;28;20070;-75
2022/08/04 10:07:29;;;;;;;3.30;1.67;;;;;;;33.77;39.59;99338.16;4952894;28;20023;-76
2022/08/04 10:10:31;;;;;;;4.88;1.75;;;;;;;34.40;38.20;99357.69;4956790;28;20031;-76
2022/08/04 10:13:19;;;;;;;4.68;1.92;;;;;;;34.56;37.68;99330.00;4960094;28;20069;-76
2022/08/04 10:16:05;;;;;;;6.65;1.80;;;;;;;33.88;38.44;99195.34;4953011;28;20039;-75
2022/08/04 10:19:27;;;;;;;4.07;1.60;;;;;;;34.39;38.42;99350.53;4948935;28;20039;-74
2022/08/04 10:22:10;;;;;;;6.43;2.13;;;;;;;33.66;38.75;99152.47;4981170;28;20049;-76
2022/08/04 10:24:56;;;;;;;7.43;1.48;;;;;;;33.95;37.63;99190.00;4975676;28;20034;-76
2022/08/04 10:27:44;;;;;;;3.88;2.00;;;;;;;34.35;37.94;99297.03;4955009;28;20058;-77
2022/08/04 10:30:12;;;;;;;3.47;1.90;;;;;;;34.05;38.20;99247.59;4953595;28;20043;-75
2022/08/04 10:33:02;;;;;;;4.38;1.55;;;;;;;34.79;37.72;99391.16;4952817;28;20034;-76
2022/08/04 10:35:34;;;;;;;4.80;1.90;;;;;;;34.65;38.14;99352.00;4960754;28;20036;-75
2022/08/04 10:38:12;;;;;;;9.38;2.78;;;;;;;35.31;37.92;99475.25;4952880;28;20066;-76
2022/08/04 10:41:00;;;;;;;5.00;2.38;;;;;;;35.18;37.49;99380.25;4935062;29;20035;-75
2022/08/04 10:43:53;;;;;;;3.72;2.05;;;;;;;35.10;37.42;99334.06;4954307;28;20403;-76
2022/08/04 10:46:31;;;;;;;10.32;2.53;;;;;;;34.88;38.18;99332.75;4940107;28;20081;-75
2022/08/04 10:49:01;;;;;;;7.18;1.90;;;;;;;35.16;37.80;99388.09;4954951;28;20034;-76
2022/08/04 10:51:39;;;;;;;7.40;2.58;;;;;;;35.68;36.39;99336.13;4952507;28;20055;-76
2022/08/04 10:54:09;;;;;;;5.68;2.30;;;;;;;34.87;37.79;99243.25;4955273;28;20035;-76
2022/08/04 10:56:57;;;;;;;6.50;2.03;;;;;;;35.13;36.88;99228.00;4961182;28;20046;-76
2022/08/04 10:59:58;;;;;;;3.45;2.30;;;;;;;36.29;35.26;99357.59;4951899;28;20034;-76
2022/08/04 11:02:49;;;;;;;4.25;1.90;;;;;;;35.58;36.33;99273.66;4934210;28;20057;-75
2022/08/04 11:05:23;;;;;;;3.70;2.03;;;;;;;35.86;35.65;99264.31;4938804;28;20054;-75
2022/08/04 11:07:52;;;;;;;10.40;2.53;;;;;;;35.70;35.71;99195.03;4976417;28;21082;-76
2022/08/04 11:10:21;;;;;;;5.32;2.00;;;;;;;35.85;34.92;99126.69;4980969;28;20058;-76
2022/08/04 11:12:55;;;;;;;3.80;1.98;;;;;;;34.97;35.80;98942.44;4981002;28;20481;-75
2022/08/04 11:15:37;;;;;;;5.57;1.70;;;;;;;35.92;34.94;99154.56;4977474;28;20043;-76
2022/08/04 11:18:07;;;;;;;5.22;2.22;;;;;;;35.66;34.78;99072.84;4979857;28;20041;-75
2022/08/04 11:21:00;;;;;;;5.55;2.25;;;;;;;35.03;35.23;98951.28;4978843;28;20045;-75
2022/08/04 11:23:32;;;;;;;7.75;2.30;;;;;;;35.73;35.11;99122.13;4978265;28;20502;-76
2022/08/04 11:26:00;;;;;;;2.40;2.10;;;;;;;36.20;34.03;99142.31;4984576;28;20050;-76
2022/08/04 11:28:45;;;;;;;3.25;2.03;;;;;;;36.13;33.87;99052.16;5032166;28;20387;-76
2022/08/04 11:31:18;;;;;;;3.72;2.13;;;;;;;35.18;34.00;98785.94;4971902;28;20049;-76
2022/08/04 11:33:55;;;;;;;3.42;1.80;;;;;;;34.10;35.50;98733.56;4973159;28;20034;-76
2022/08/04 11:36:45;;;;;;;3.53;2.00;;;;;;;34.72;35.44;98933.69;4983315;28;20044;-76
2022/08/04 11:39:41;;;;;;;4.43;2.03;;;;;;;34.58;35.84;98930.63;4970613;28;20496;-77
2022/08/04 11:42:17;;;;;;;3.85;2.28;;;;;;;35.02;36.07;99116.81;4983044;28;20042;-76
2022/08/04 11:44:47;;;;;;;5.97;2.20;;;;;;;35.33;35.37;99112.28;4971769;28;20462;-78
2022/08/04 11:47:23;;;;;;;9.00;2.55;;;;;;;35.34;35.66;99107.53;4999300;28;20103;-78
2022/08/04 11:50:24;;;;;;;2.88;2.22;;;;;;;36.44;34.97;99338.38;4970327;28;20037;-78
2022/08/04 11:52:53;;;;;;;4.47;2.35;;;;;;;36.11;35.25;99206.47;4953482;28;20050;-76
2022/08/04 11:55:21;;;;;;;2.58;2.00;;;;;;;35.03;34.62;98881.97;4984359;28;20022;-76
2022/08/04 11:57:47;;;;;;;2.70;2.05;;;;;;;35.66;35.62;99183.03;4972422;28;20388;-78
2022/08/04 12:00:16;;;;;;;3.40;2.30;;;;;;;35.18;33.67;98797.84;4983124;28;20394;-75
2022/08/04 12:03:14;;;;;;;2.58;2.05;;;;;;;35.15;34.82;98959.44;4972977;28;20034;-76
2022/08/04 12:06:02;;;;;;;2.22;2.03;;;;;;;35.09;34.54;98908.97;4978266;28;20077;-76
2022/08/04 12:08:57;;;;;;;3.67;2.67;;;;;;;35.88;33.34;98964.91;4973336;28;20039;-77
2022/08/04 12:11:42;;;;;;;7.45;2.92;;;;;;;35.64;33.59;98938.41;5035360;28;20195;-75
2022/08/04 12:14:25;;;;;;;2.97;1.83;;;;;;;35.35;33.83;98851.16;4982613;28;20031;-76
2022/08/04 12:16:54;;;;;;;7.78;2.60;;;;;;;34.70;34.35;98730.19;5008845;28;20038;-75